Time;durP1;ratioP1;P1;durP2;ratioP2;P2;SDS_P1;SDS_P2;PMS_P1;PMS_P2;Temp;Humidity;BMP_temperature;BMP_pressure;BME280_temperature;BME280_humidity;BME280_pressure;Samples;Min_cycle;Max_cycle;Signal;HPM_P1;HPM_P2
2022/08/18 00:00:33;;;;;;;8.25;6.57;;;;;;;;;;10268524;28;20038;-71
2022/08/18 00:05:35;;;;;;;6.90;6.13;;;;;;;;;;10274429;28;20455;-71
2022/08/18 00:10:35;;;;;;;10.52;6.40;;;;;;;;;;10278989;28;20410;-69
2022/08/18 00:15:35;;;;;;;8.48;6.18;;;;;;;;;;10273107;28;20045;-69
2022/08/18 00:20:36;;;;;;;7.03;6.30;;;;;;;;;;10276319;28;20109;-69
2022/08/18 00:25:36;;;;;;;9.98;6.93;;;;;;;;;;10272656;28;20503;-72
2022/08/18 00:30:37;;;;;;;7.10;6.13;;;;;;;;;;10276038;28;20034;-70
2022/08/18 00:35:38;;;;;;;7.43;5.22;;;;;;;;;;10274962;28;20056;-70
2022/08/18 00:40:41;;;;;;;5.72;5.15;;;;;;;;;;10281211;28;20051;-70
2022/08/18 00:45:42;;;;;;;4.82;4.43;;;;;;;;;;10278314;28;20042;-71
2022/08/18 00:50:51;;;;;;;5.72;4.80;;;;;;;;;;10271136;28;20045;-71
2022/08/18 00:55:52;;;;;;;5.70;5.10;;;;;;;;;;10273810;28;20063;-70
2022/08/18 01:00:53;;;;;;;5.38;4.88;;;;;;;;;;10266957;28;20041;-70
2022/08/18 01:05:54;;;;;;;5.40;4.28;;;;;;;;;;10274535;28;20041;-71
2022/08/18 01:10:54;;;;;;;5.10;4.60;;;;;;;;;;10271351;28;20034;-72
2022/08/18 01:15:55;;;;;;;4.93;4.22;;;;;;;;;;10275274;28;20043;-72
2022/08/18 01:26:37;;;;;;;5.45;4.90;;;;;;;;;;10276833;28;20039;-70
2022/08/18 01:31:40;;;;;;;6.35;5.13;;;;;;;;;;10275678;28;20039;-71
2022/08/18 01:36:41;;;;;;;9.43;5.30;;;;;;;;;;10273673;28;20170;-71
2022/08/18 01:41:41;;;;;;;8.30;5.70;;;;;;;;;;10270792;28;20038;-71
2022/08/18 01:46:42;;;;;;;5.83;5.20;;;;;;;;;;10270803;28;20043;-71
2022/08/18 01:51:42;;;;;;;5.80;5.20;;;;;;;;;;10276949;28;20146;-70
2022/08/18 01:56:42;;;;;;;9.17;6.20;;;;;;;;;;10272444;28;20356;-69
2022/08/18 02:01:44;;;;;;;6.65;6.05;;;;;;;;;;10282581;28;20298;-71
2022/08/18 02:06:45;;;;;;;9.82;6.70;;;;;;;;;;10284328;28;20101;-70
2022/08/18 02:11:46;;;;;;;6.93;6.25;;;;;;;;;;10283987;28;20041;-70
2022/08/18 02:16:46;;;;;;;6.93;5.82;;;;;;;;;;10285399;28;20062;-70
2022/08/18 02:21:46;;;;;;;7.10;6.50;;;;;;;;;;10278544;28;20117;-71
2022/08/18 02:26:47;;;;;;;10.13;8.70;;;;;;;;;;10279844;28;20550;-70
2022/08/18 02:31:47;;;;;;;9.00;8.10;;;;;;;;;;10277449;28;20419;-69
2022/08/18 02:36:48;;;;;;;9.17;7.30;;;;;;;;;;10279165;28;20130;-69
2022/08/18 02:41:48;;;;;;;7.40;6.80;;;;;;;;;;10271735;28;20043;-71
2022/08/18 02:46:52;;;;;;;7.67;6.97;;;;;;;;;;10286733;28;20046;-70
2022/08/18 02:51:53;;;;;;;7.68;7.00;;;;;;;;;;10278057;28;20376;-70
2022/08/18 02:56:56;;;;;;;9.07;7.70;;;;;;;;;;10282693;28;20061;-69
2022/08/18 03:01:57;;;;;;;;;;;;;;;;;;10277629;28;20449;-69
2022/08/18 03:06:59;;;;;;;10.60;8.55;;;;;;;;;;10276063;28;19973;-71
2022/08/18 03:12:00;;;;;;;11.50;9.02;;;;;;;;;;10269555;28;20051;-69
2022/08/18 03:17:03;;;;;;;10.35;9.27;;;;;;;;;;10272797;28;20088;-69
2022/08/18 03:22:04;;;;;;;9.93;8.90;;;;;;;;;;10258966;28;20106;-70
2022/08/18 03:27:05;;;;;;;11.52;10.30;;;;;;;;;;10272089;28;20043;-70
2022/08/18 03:32:07;;;;;;;14.10;10.43;;;;;;;;;;10287183;28;20491;-71
2022/08/18 03:37:08;;;;;;;11.97;9.97;;;;;;;;;;10279977;28;20047;-70
2022/08/18 03:42:08;;;;;;;12.63;10.65;;;;;;;;;;10279667;28;20038;-70
2022/08/18 03:47:09;;;;;;;11.73;10.55;;;;;;;;;;10255517;28;20046;-70
2022/08/18 03:52:09;;;;;;;11.68;10.52;;;;;;;;;;10274814;28;20053;-70
2022/08/18 03:57:11;;;;;;;11.53;10.33;;;;;;;;;;10277148;28;20125;-70
2022/08/18 04:02:11;;;;;;;13.15;10.07;;;;;;;;;;10270101;28;20295;-69
2022/08/18 04:07:13;;;;;;;12.83;10.83;;;;;;;;;;10273852;28;20039;-71
2022/08/18 04:12:14;;;;;;;12.23;10.73;;;;;;;;;;10269597;28;20326;-70
2022/08/18 04:17:24;;;;;;;11.70;10.43;;;;;;;;;;10284993;28;20079;-70
2022/08/18 04:22:25;;;;;;;14.43;11.13;;;;;;;;;;10280370;28;20091;-70
2022/08/18 04:27:26;;;;;;;12.57;11.18;;;;;;;;;;10280346;28;20042;-71
2022/08/18 04:32:29;;;;;;;13.05;11.63;;;;;;;;;;10270897;28;20074;-71
2022/08/18 04:37:31;;;;;;;12.95;10.85;;;;;;;;;;10274537;28;20046;-73
2022/08/18 04:42:31;;;;;;;15.13;11.25;;;;;;;;;;10275712;28;20046;-71
2022/08/18 04:47:33;;;;;;;14.60;12.63;;;;;;;;;;10271621;28;20050;-71
2022/08/18 04:57:52;;;;;;;13.45;11.65;;;;;;;;;;10276401;28;20051;-71
2022/08/18 05:02:55;;;;;;;14.57;13.07;;;;;;;;;;10282050;28;20023;-69
2022/08/18 05:07:56;;;;;;;16.75;14.02;;;;;;;;;;10280668;28;20391;-69
2022/08/18 05:12:57;;;;;;;14.48;12.50;;;;;;;;;;10279824;28;20486;-70
2022/08/18 05:17:57;;;;;;;16.67;14.77;;;;;;;;;;10256857;28;20038;-70
2022/08/18 05:22:58;;;;;;;15.03;13.53;;;;;;;;;;10269596;28;20045;-71
2022/08/18 05:27:58;;;;;;;15.60;14.00;;;;;;;;;;10261822;28;20092;-69
2022/08/18 05:33:00;;;;;;;16.23;13.52;;;;;;;;;;10270302;28;20298;-70
2022/08/18 05:38:20;;;;;;;16.70;14.02;;;;;;;;;;10280750;28;20077;-70
2022/08/18 05:43:20;;;;;;;13.57;12.00;;;;;;;;;;10287350;28;20038;-70
2022/08/18 05:48:21;;;;;;;14.93;13.10;;;;;;;;;;10271880;28;20050;-70
2022/08/18 05:56:45;;;;;;;13.30;11.52;;;;;;;;;;10286880;28;21012;-67
2022/08/18 05:58:45;;;;;;;12.45;11.13;;;;;;;;;;10289262;28;20053;-70
2022/08/18 06:03:48;;;;;;;15.63;13.05;;;;;;;;;;10278333;28;20054;-70
2022/08/18 06:08:54;;;;;;;12.88;11.27;;;;;;;;;;10284990;28;20154;-70
2022/08/18 06:13:55;;;;;;;13.95;11.27;;;;;;;;;;10284644;28;20050;-69
2022/08/18 06:19:02;;;;;;;12.65;11.30;;;;;;;;;;10271103;28;20090;-69
2022/08/18 06:24:02;;;;;;;10.80;9.68;;;;;;;;;;10263741;28;20390;-69
2022/08/18 06:29:02;;;;;;;13.17;11.87;;;;;;;;;;10290451;28;20043;-68
2022/08/18 06:34:13;;;;;;;13.87;12.47;;;;;;;;;;10285648;28;20118;-69
2022/08/18 06:39:28;;;;;;;14.98;13.38;;;;;;;;;;10283658;28;20317;-69
2022/08/18 06:44:31;;;;;;;15.75;11.35;;;;;;;;;;10281801;28;20107;-69
2022/08/18 06:49:37;;;;;;;13.43;12.02;;;;;;;;;;10282317;28;20046;-69
2022/08/18 06:54:41;;;;;;;11.40;10.20;;;;;;;;;;10287704;28;20037;-69
2022/08/18 06:59:42;;;;;;;12.82;10.45;;;;;;;;;;10278538;28;20046;-69
2022/08/18 07:04:56;;;;;;;11.50;10.30;;;;;;;;;;10284236;28;20045;-71
2022/08/18 07:09:57;;;;;;;10.23;9.23;;;;;;;;;;10270740;28;20037;-70
2022/08/18 07:15:02;;;;;;;10.75;9.65;;;;;;;;;;10286880;28;20382;-69
2022/08/18 07:20:23;;;;;;;12.63;11.25;;;;;;;;;;10280212;28;20042;-69
2022/08/18 07:25:38;;;;;;;13.25;11.35;;;;;;;;;;10281915;28;20031;-67
2022/08/18 07:30:38;;;;;;;11.73;10.52;;;;;;;;;;10279618;28;20046;-70
2022/08/18 07:35:43;;;;;;;11.48;10.13;;;;;;;;;;10279802;28;20053;-68
2022/08/18 07:40:52;;;;;;;13.15;11.13;;;;;;;;;;10280578;28;20039;-70
2022/08/18 07:45:54;;;;;;;11.50;9.68;;;;;;;;;;10271598;28;20153;-69
2022/08/18 07:51:14;;;;;;;10.93;9.50;;;;;;;;;;10277621;28;20406;-69
2022/08/18 07:56:27;;;;;;;10.68;9.43;;;;;;;;;;10282058;28;20038;-70
2022/08/18 08:01:42;;;;;;;10.38;9.10;;;;;;;;;;10282065;28;20066;-68
2022/08/18 08:06:53;;;;;;;10.65;9.43;;;;;;;;;;10285063;28;20057;-70
2022/08/18 08:12:11;;;;;;;10.55;9.45;;;;;;;;;;10278620;28;20180;-69
2022/08/18 08:17:29;;;;;;;10.23;9.23;;;;;;;;;;10269160;28;20057;-70
2022/08/18 08:22:35;;;;;;;10.15;9.07;;;;;;;;;;10277708;28;20034;-69
2022/08/18 08:27:55;;;;;;;11.65;9.80;;;;;;;;;;10283243;28;20062;-68
2022/08/18 08:32:55;;;;;;;10.82;9.60;;;;;;;;;;10281352;28;20054;-67
2022/08/18 08:38:05;;;;;;;11.00;9.83;;;;;;;;;;10284823;28;20046;-70
2022/08/18 08:43:09;;;;;;;9.93;9.02;;;;;;;;;;10281128;28;20080;-68
2022/08/18 08:48:13;;;;;;;10.35;9.20;;;;;;;;;;10281502;28;20372;-69
2022/08/18 08:53:18;;;;;;;10.00;8.98;;;;;;;;;;10278811;28;20027;-71
2022/08/18 08:58:21;;;;;;;10.13;8.45;;;;;;;;;;10281223;28;20046;-69
2022/08/18 09:03:22;;;;;;;9.43;8.60;;;;;;;;;;10281484;28;20113;-70
2022/08/18 09:08:22;;;;;;;12.73;8.87;;;;;;;;;;10287549;28;20503;-72
2022/08/18 09:13:32;;;;;;;9.27;8.43;;;;;;;;;;10281864;28;20042;-69
2022/08/18 09:18:36;;;;;;;8.18;7.38;;;;;;;;;;10280459;28;20180;-69
2022/08/18 09:23:41;;;;;;;9.50;8.52;;;;;;;;;;10289193;28;20097;-69
2022/08/18 09:28:55;;;;;;;8.93;8.10;;;;;;;;;;10286679;28;20043;-68
2022/08/18 09:34:00;;;;;;;8.38;7.57;;;;;;;;;;10288375;28;20037;-70
2022/08/18 09:44:45;;;;;;;9.10;8.23;;;;;;;;;;10285760;28;20043;-68
2022/08/18 09:49:48;;;;;;;8.48;7.68;;;;;;;;;;10282876;28;20034;-72
2022/08/18 09:54:52;;;;;;;9.50;7.90;;;;;;;;;;10282668;28;20474;-70
2022/08/18 09:59:54;;;;;;;8.82;8.02;;;;;;;;;;10283544;28;20038;-70
2022/08/18 10:05:23;;;;;;;8.48;7.68;;;;;;;;;;10288220;28;20129;-69
2022/08/18 10:10:38;;;;;;;9.02;8.10;;;;;;;;;;10272202;28;20061;-68
2022/08/18 10:15:47;;;;;;;8.52;7.72;;;;;;;;;;10284569;28;20082;-69
2022/08/18 10:21:08;;;;;;;9.07;8.18;;;;;;;;;;10287752;28;20400;-70
2022/08/18 10:26:28;;;;;;;8.43;7.75;;;;;;;;;;10295660;28;20058;-71
2022/08/18 10:31:30;;;;;;;7.93;7.15;;;;;;;;;;10290862;28;20039;-72
2022/08/18 10:36:51;;;;;;;7.88;7.28;;;;;;;;;;10281031;28;20122;-73
2022/08/18 10:42:05;;;;;;;8.50;7.70;;;;;;;;;;10276190;28;20034;-72
2022/08/18 10:47:05;;;;;;;9.25;8.35;;;;;;;;;;10281485;28;20057;-72
2022/08/18 10:52:13;;;;;;;8.83;7.90;;;;;;;;;;10288080;28;20063;-70
2022/08/18 10:57:26;;;;;;;7.97;7.28;;;;;;;;;;10289196;28;20053;-72
2022/08/18 11:02:42;;;;;;;8.38;7.57;;;;;;;;;;10291447;28;20039;-72
2022/08/18 11:07:45;;;;;;;8.02;7.30;;;;;;;;;;10277997;28;20065;-71
2022/08/18 11:13:04;;;;;;;8.38;7.57;;;;;;;;;;10281549;28;20044;-74
2022/08/18 11:18:07;;;;;;;9.15;7.35;;;;;;;;;;10274428;28;20070;-71
2022/08/18 11:23:13;;;;;;;8.07;7.38;;;;;;;;;;10282077;28;20059;-74
2022/08/18 11:28:20;;;;;;;8.13;7.40;;;;;;;;;;10277377;28;20553;-73
2022/08/18 11:33:21;;;;;;;8.40;7.70;;;;;;;;;;10281371;28;20093;-72
2022/08/18 11:38:21;;;;;;;8.60;7.80;;;;;;;;;;10276771;28;20367;-72
2022/08/18 11:43:27;;;;;;;8.07;7.30;;;;;;;;;;10282093;28;20090;-71
2022/08/18 11:48:27;;;;;;;8.50;7.70;;;;;;;;;;10270640;28;20041;-76
2022/08/18 11:53:31;;;;;;;9.60;8.67;;;;;;;;;;10278589;28;20485;-75
2022/08/18 11:58:45;;;;;;;8.27;7.63;;;;;;;;;;10275685;28;20049;-76
2022/08/18 12:03:47;;;;;;;7.45;6.68;;;;;;;;;;10273177;28;20042;-76
2022/08/18 12:08:50;;;;;;;7.97;7.18;;;;;;;;;;10278787;28;20118;-75
2022/08/18 12:13:58;;;;;;;8.15;7.45;;;;;;;;;;10269482;28;20034;-75
2022/08/18 12:18:59;;;;;;;7.63;7.03;;;;;;;;;;10277758;28;20039;-75
2022/08/18 12:23:59;;;;;;;10.00;8.43;;;;;;;;;;10280789;28;20090;-75
2022/08/18 12:29:00;;;;;;;8.20;7.50;;;;;;;;;;10276904;28;20126;-77
2022/08/18 12:34:00;;;;;;;9.60;8.10;;;;;;;;;;10265635;28;20043;-75
2022/08/18 12:39:01;;;;;;;8.47;7.67;;;;;;;;;;10274446;28;20053;-77
2022/08/18 12:44:01;;;;;;;8.33;6.77;;;;;;;;;;10275032;28;20066;-75
2022/08/18 12:49:02;;;;;;;8.80;7.60;;;;;;;;;;10274020;28;20313;-75
2022/08/18 12:54:02;;;;;;;8.87;7.97;;;;;;;;;;10281272;28;20022;-74
2022/08/18 12:59:04;;;;;;;10.90;8.07;;;;;;;;;;10275469;28;20058;-76
2022/08/18 13:04:04;;;;;;;8.15;7.45;;;;;;;;;;10281955;28;20479;-75
2022/08/18 13:09:05;;;;;;;8.50;7.70;;;;;;;;;;10283242;28;20038;-75
2022/08/18 13:14:06;;;;;;;8.15;7.35;;;;;;;;;;10288033;28;20047;-74
2022/08/18 13:19:07;;;;;;;8.00;7.30;;;;;;;;;;10296958;28;20230;-75
2022/08/18 13:24:08;;;;;;;8.82;7.93;;;;;;;;;;10273390;28;20086;-75
2022/08/18 13:29:09;;;;;;;8.27;7.50;;;;;;;;;;10277526;28;20483;-76
2022/08/18 13:34:09;;;;;;;7.82;7.10;;;;;;;;;;10268841;28;20041;-76
2022/08/18 13:39:13;;;;;;;8.70;7.60;;;;;;;;;;10275940;28;20057;-75
2022/08/18 13:44:16;;;;;;;7.28;6.60;;;;;;;;;;10271077;28;20054;-75
2022/08/18 13:49:21;;;;;;;8.98;7.00;;;;;;;;;;10287067;28;20041;-76
2022/08/18 13:54:22;;;;;;;8.32;7.53;;;;;;;;;;10288851;28;20038;-76
2022/08/18 13:59:23;;;;;;;;;;;;;;;;;;10286312;28;20061;-75
2022/08/18 14:04:23;;;;;;;7.85;7.10;;;;;;;;;;10285462;28;20298;-76
2022/08/18 14:09:24;;;;;;;8.43;7.60;;;;;;;;;;10268662;28;20054;-76
2022/08/18 14:14:25;;;;;;;8.57;7.70;;;;;;;;;;10286761;28;20058;-76
2022/08/18 14:30:05;;;;;;;8.00;7.30;;;;;;;;;;10280313;28;20464;-75
2022/08/18 14:35:07;;;;;;;8.25;7.50;;;;;;;;;;10286544;28;20130;-74
2022/08/18 14:40:07;;;;;;;7.63;7.00;;;;;;;;;;10285470;28;20150;-76
2022/08/18 14:45:08;;;;;;;10.07;8.70;;;;;;;;;;10286295;28;20705;-75
2022/08/18 14:50:11;;;;;;;9.25;7.30;;;;;;;;;;10278431;28;20047;-76
2022/08/18 14:55:12;;;;;;;8.63;7.47;;;;;;;;;;10280270;28;20082;-75
2022/08/18 15:00:14;;;;;;;8.70;7.90;;;;;;;;;;10282281;28;20637;-76
2022/08/18 15:05:15;;;;;;;8.77;7.90;;;;;;;;;;10274337;28;20474;-76
2022/08/18 15:10:16;;;;;;;7.82;7.07;;;;;;;;;;10284490;28;20063;-76
2022/08/18 15:15:16;;;;;;;8.17;7.50;;;;;;;;;;10292137;28;20042;-76
2022/08/18 15:20:17;;;;;;;8.03;7.23;;;;;;;;;;10296148;28;20035;-74
2022/08/18 15:30:56;;;;;;;8.65;7.75;;;;;;;;;;10247640;28;20352;-76
2022/08/18 15:35:56;;;;;;;8.80;7.97;;;;;;;;;;10273239;28;20047;-76
2022/08/18 15:40:58;;;;;;;8.67;7.87;;;;;;;;;;10280569;28;20182;-76
2022/08/18 15:45:58;;;;;;;;;;;;;;;;;;10276764;28;20043;-75
2022/08/18 15:50:58;;;;;;;8.68;7.90;;;;;;;;;;10276679;28;20269;-76
2022/08/18 15:55:59;;;;;;;9.10;8.20;;;;;;;;;;10271453;28;20125;-75
2022/08/18 16:01:01;;;;;;;9.57;8.63;;;;;;;;;;10286322;28;20498;-76
2022/08/18 16:06:02;;;;;;;8.65;7.72;;;;;;;;;;10289430;28;20510;-77
2022/08/18 16:11:09;;;;;;;9.63;7.33;;;;;;;;;;10278386;28;20083;-76
2022/08/18 16:16:10;;;;;;;8.45;7.65;;;;;;;;;;10283505;28;20051;-76
2022/08/18 16:21:11;;;;;;;;;;;;;;;;;;10276416;28;20126;-75
2022/08/18 16:26:13;;;;;;;9.05;8.25;;;;;;;;;;10286235;28;19921;-75
2022/08/18 16:31:15;;;;;;;9.32;8.25;;;;;;;;;;10276438;28;20035;-76
2022/08/18 16:36:15;;;;;;;8.60;7.90;;;;;;;;;;10278116;28;20111;-76
2022/08/18 16:41:16;;;;;;;9.80;8.90;;;;;;;;;;10282897;28;20030;-75
2022/08/18 16:46:20;;;;;;;8.77;7.97;;;;;;;;;;10282295;28;20105;-75
2022/08/18 16:51:21;;;;;;;8.70;7.82;;;;;;;;;;10277525;28;20498;-76
2022/08/18 16:56:22;;;;;;;;;;;;;;;;;;10278309;28;20487;-75
2022/08/18 17:06:42;;;;;;;8.68;7.88;;;;;;;;;;10270033;28;20031;-76
2022/08/18 17:11:43;;;;;;;8.00;7.35;;;;;;;;;;10277797;28;20053;-76
2022/08/18 17:16:44;;;;;;;8.30;7.60;;;;;;;;;;10277769;28;20053;-74
2022/08/18 17:21:45;;;;;;;8.30;7.53;;;;;;;;;;10280748;28;20062;-75
2022/08/18 17:26:58;;;;;;;8.37;6.90;;;;;;;;;;10284042;28;20133;-75
2022/08/18 17:32:01;;;;;;;8.07;7.47;;;;;;;;;;10285820;28;20430;-74
2022/08/18 17:37:01;;;;;;;7.90;7.18;;;;;;;;;;10284555;28;20101;-74
2022/08/18 17:47:24;;;;;;;8.10;7.40;;;;;;;;;;10280212;28;20046;-68
2022/08/18 17:52:26;;;;;;;8.40;7.60;;;;;;;;;;10277430;28;20457;-69
2022/08/18 17:57:28;;;;;;;7.90;7.20;;;;;;;;;;10281822;28;20051;-68
2022/08/18 18:02:30;;;;;;;8.35;7.45;;;;;;;;;;10275407;28;20038;-69
2022/08/18 18:07:34;;;;;;;8.52;7.72;;;;;;;;;;10284071;28;20385;-70
2022/08/18 18:12:36;;;;;;;10.07;9.18;;;;;;;;;;10290586;28;20101;-70
2022/08/18 18:17:37;;;;;;;10.85;9.85;;;;;;;;;;10284172;28;20447;-69
2022/08/18 18:22:39;;;;;;;12.70;10.52;;;;;;;;;;10268678;28;20054;-69
2022/08/18 18:27:40;;;;;;;;;;;;;;;;;;10278630;28;20122;-69
2022/08/18 18:32:50;;;;;;;11.65;10.55;;;;;;;;;;10277741;28;20018;-70
2022/08/18 18:37:55;;;;;;;13.57;11.00;;;;;;;;;;10279395;28;20415;-70
2022/08/18 18:42:56;;;;;;;11.35;10.18;;;;;;;;;;10282815;28;20222;-69
2022/08/18 18:47:56;;;;;;;12.10;10.67;;;;;;;;;;10274739;28;20122;-70
2022/08/18 18:53:03;;;;;;;11.87;10.70;;;;;;;;;;10264970;28;20038;-70
2022/08/18 18:58:22;;;;;;;13.43;10.45;;;;;;;;;;10273147;28;20046;-71
2022/08/18 19:03:27;;;;;;;11.73;10.73;;;;;;;;;;10281632;28;20073;-70
2022/08/18 19:08:40;;;;;;;11.00;9.90;;;;;;;;;;10277005;28;20035;-70
2022/08/18 19:13:46;;;;;;;12.30;11.10;;;;;;;;;;10275379;28;20308;-70
2022/08/18 19:18:49;;;;;;;12.35;11.13;;;;;;;;;;10274529;28;20119;-69
2022/08/18 19:23:55;;;;;;;11.40;10.32;;;;;;;;;;10272618;28;20194;-69
2022/08/18 19:28:58;;;;;;;11.05;10.05;;;;;;;;;;10275647;28;20046;-70
2022/08/18 19:34:01;;;;;;;11.80;10.32;;;;;;;;;;10271382;28;20105;-70
2022/08/18 19:39:11;;;;;;;10.98;9.98;;;;;;;;;;10280966;28;20047;-72
2022/08/18 19:44:27;;;;;;;11.57;10.25;;;;;;;;;;10283830;28;20026;-70
2022/08/18 19:49:40;;;;;;;11.07;9.90;;;;;;;;;;10275268;28;20039;-72
2022/08/18 19:54:40;;;;;;;;;;;;;;;;;;10254881;28;20038;-70
2022/08/18 19:59:54;;;;;;;10.00;9.07;;;;;;;;;;10279735;28;20349;-71
2022/08/18 20:05:00;;;;;;;8.98;8.25;;;;;;;;;;10270798;28;20146;-70
2022/08/18 20:10:07;;;;;;;10.02;8.98;;;;;;;;;;10274820;28;20046;-70
2022/08/18 20:15:07;;;;;;;10.45;8.55;;;;;;;;;;10275112;28;20042;-71
2022/08/18 20:20:12;;;;;;;8.18;7.47;;;;;;;;;;10272563;28;20066;-71
2022/08/18 20:25:19;;;;;;;10.07;8.80;;;;;;;;;;10278199;28;20386;-70
2022/08/18 20:30:19;;;;;;;10.23;8.20;;;;;;;;;;10281763;28;20518;-70
2022/08/18 20:35:24;;;;;;;9.27;8.40;;;;;;;;;;10259990;28;20141;-73
2022/08/18 20:40:41;;;;;;;9.73;8.82;;;;;;;;;;10273461;28;20475;-71
2022/08/18 20:45:43;;;;;;;9.77;8.63;;;;;;;;;;10277664;28;20059;-71
2022/08/18 20:51:10;;;;;;;9.02;8.18;;;;;;;;;;10270554;28;20041;-70
2022/08/18 20:56:23;;;;;;;9.77;8.88;;;;;;;;;;10277946;28;20050;-72
2022/08/18 21:01:25;;;;;;;12.10;9.70;;;;;;;;;;10267183;28;20047;-71
2022/08/18 21:06:30;;;;;;;10.27;9.00;;;;;;;;;;10277404;28;20042;-72
2022/08/18 21:11:39;;;;;;;9.90;8.90;;;;;;;;;;10472929;23;20530;-70
2022/08/18 21:16:43;;;;;;;12.88;10.23;;;;;;;;;;10398108;28;20049;-71
2022/08/18 21:21:46;;;;;;;17.40;11.88;;;;;;;;;;10399297;28;20068;-71
2022/08/18 21:32:10;;;;;;;15.30;13.70;;;;;;;;;;10263938;28;20043;-73
2022/08/18 21:37:12;;;;;;;17.05;15.23;;;;;;;;;;10243294;28;20047;-73
2022/08/18 21:42:17;;;;;;;17.00;15.17;;;;;;;;;;10281437;28;20205;-72
2022/08/18 21:47:32;;;;;;;19.92;16.77;;;;;;;;;;10261504;28;20035;-73
2022/08/18 21:52:32;;;;;;;21.92;18.55;;;;;;;;;;10274434;28;20043;-72
2022/08/18 21:57:46;;;;;;;19.40;15.90;;;;;;;;;;10277943;28;20768;-73
2022/08/18 22:02:50;;;;;;;20.95;18.10;;;;;;;;;;10272430;28;20102;-73
2022/08/18 22:07:50;;;;;;;18.70;16.67;;;;;;;;;;10282994;28;20379;-73
2022/08/18 22:18:16;;;;;;;20.58;18.42;;;;;;;;;;10285190;28;20114;-73
2022/08/18 22:28:47;;;;;;;23.20;20.58;;;;;;;;;;10285735;28;20038;-75
2022/08/18 22:33:49;;;;;;;21.50;19.17;;;;;;;;;;10262681;28;20070;-74
2022/08/18 22:38:51;;;;;;;23.53;20.33;;;;;;;;;;10285358;28;20073;-74
2022/08/18 22:43:51;;;;;;;23.08;20.10;;;;;;;;;;10285153;28;20081;-73
2022/08/18 22:48:52;;;;;;;26.23;23.42;;;;;;;;;;10249273;28;20141;-73
2022/08/18 22:53:52;;;;;;;24.80;21.88;;;;;;;;;;10275483;28;20031;-73
2022/08/18 22:58:55;;;;;;;26.98;22.02;;;;;;;;;;10278842;28;20047;-74
2022/08/18 23:03:56;;;;;;;25.75;22.13;;;;;;;;;;10272057;28;20430;-73
2022/08/18 23:08:56;;;;;;;29.90;23.15;;;;;;;;;;10275043;28;20094;-74
2022/08/18 23:13:58;;;;;;;25.40;20.92;;;;;;;;;;10274012;28;20411;-73
2022/08/18 23:19:00;;;;;;;22.92;19.63;;;;;;;;;;10259077;28;20053;-74
2022/08/18 23:24:01;;;;;;;26.83;22.53;;;;;;;;;;10281609;28;20121;-72
2022/08/18 23:29:03;;;;;;;27.70;22.92;;;;;;;;;;10278455;28;20054;-72
2022/08/18 23:34:03;;;;;;;28.77;23.88;;;;;;;;;;10278608;28;20039;-74
2022/08/18 23:39:05;;;;;;;26.63;22.67;;;;;;;;;;10274506;28;20065;-74
2022/08/18 23:44:05;;;;;;;25.92;22.15;;;;;;;;;;10276522;28;20125;-73
2022/08/18 23:49:06;;;;;;;31.55;23.45;;;;;;;;;;10274272;28;20039;-74
2022/08/18 23:54:07;;;;;;;27.70;23.20;;;;;;;;;;10273989;28;20043;-73
2022/08/18 23:59:07;;;;;;;31.52;25.40;;;;;;;;;;10271712;28;20113;-73
